Date,TemperatureHighF,TemperatureAvgF,TemperatureLowF,DewpointHighF,DewpointAvgF,DewpointLowF,HumidityHigh,HumidityAvg,HumidityLow,PressureMaxIn,PressureMinIn,WindSpeedMaxMPH,WindSpeedAvgMPH,GustSpeedMaxMPH,PrecipitationSumIn
2013-8-1,79.7,61.9,47.6,56.1,52.2,46.8,97,74,41,30.15,29.98,8,2,13,0.00
2013-8-2,75.5,58.9,47.6,56.3,51.7,46.7,97,79,50,30.06,29.95,8,2,14,0.00
2013-8-3,69.2,56.8,51.6,55.0,52.6,50.9,99,87,60,30.07,29.99,10,2,13,0.00
2013-8-4,69.4,57.6,51.8,56.4,52.8,48.9,98,85,61,30.08,30.00,8,2,14,0.01
2013-8-5,74.1,59.5,50.7,57.4,52.8,49.4,99,81,52,30.09,29.97,8,2,11,0.00
2013-8-6,68.5,58.0,52.1,56.3,53.1,49.4,98,85,63,30.12,30.04,9,2,17,0.00
2013-8-7,71.7,61.1,54.1,56.8,54.0,50.8,96,79,54,30.17,30.06,8,2,13,0.00
2013-8-8,70.7,59.7,53.6,57.8,54.2,50.4,97,83,59,30.11,29.97,8,2,12,0.01
2013-8-9,72.3,61.4,54.8,57.1,54.1,51.9,91,78,58,30.06,29.96,8,2,15,0.00
2013-8-10,78.9,63.8,55.4,59.2,55.9,52.5,96,78,49,30.09,30.01,8,2,13,0.00
2013-8-11,77.5,61.8,53.6,59.3,55.2,52.3,98,81,50,30.09,29.96,8,2,12,0.00
2013-8-12,76.6,60.7,50.3,58.5,54.3,49.8,99,82,51,30.07,29.98,9,2,12,0.00
2013-8-13,81.3,62.1,49.1,58.4,53.1,48.5,98,77,34,30.06,29.93,9,2,11,0.00
2013-8-14,75.2,55.6,49.6,57.4,51.9,48.8,98,89,53,30.05,30.00,6,1,10,0.00
2013-8-23,79.5,68.5,55.0,57.9,55.3,51.8,89,65,45,29.96,29.83,8,2,11,0.00
2013-8-24,84.3,64.7,51.2,58.8,54.3,49.8,97,73,39,29.96,29.84,7,2,12,0.00
2013-8-25,82.2,66.4,57.2,61.7,57.5,54.2,93,76,45,30.01,29.93,6,2,13,0.00
2013-8-26,82.7,67.1,57.2,59.3,56.2,52.4,92,71,42,30.06,29.89,8,2,14,0.00
2013-8-27,85.1,65.2,53.4,58.2,53.3,48.4,88,69,33,29.97,29.81,8,2,12,0.00
2013-8-28,86.0,66.7,53.7,60.4,55.7,51.9,95,72,36,30.00,29.86,8,2,14,0.00
2013-8-29,87.8,67.8,56.4,65.6,58.3,55.3,97,75,40,30.08,29.96,9,2,12,0.00
2013-8-30,96.9,71.8,57.5,62.3,57.5,53.0,90,66,24,30.09,29.89,8,2,11,0.00
2013-8-31,89.6,68.9,55.9,59.5,54.8,49.0,88,65,25,30.02,29.88,7,2,11,0.00